createdAt,value
2018-05-29T00:01:33.241Z,25.57
2018-05-29T00:06:29.137Z,23.70
2018-05-29T00:11:25.034Z,24.67
2018-05-29T00:16:20.937Z,26.07
2018-05-29T00:21:16.819Z,26.20
2018-05-29T00:26:12.724Z,26.93
2018-05-29T00:31:08.647Z,28.30
2018-05-29T00:36:04.502Z,29.93
2018-05-29T00:41:00.385Z,27.20
2018-05-29T00:45:56.238Z,29.67
2018-05-29T00:50:52.119Z,29.97
2018-05-29T00:55:48.035Z,29.10
2018-05-29T01:00:43.986Z,30.60
2018-05-29T01:05:39.869Z,31.90
2018-05-29T01:10:35.763Z,32.23
2018-05-29T01:15:31.635Z,32.07
2018-05-29T01:20:27.500Z,30.77
2018-05-29T01:25:23.381Z,31.53
2018-05-29T01:30:19.233Z,32.80
2018-05-29T01:35:15.105Z,33.57
2018-05-29T01:40:11.006Z,34.93
2018-05-29T01:45:06.869Z,34.97
2018-05-29T01:50:02.773Z,36.50
2018-05-29T01:54:58.671Z,33.97
2018-05-29T01:59:54.553Z,34.57
2018-05-29T02:04:50.427Z,33.60
2018-05-29T02:09:46.308Z,34.17
2018-05-29T02:14:42.224Z,32.47
2018-05-29T02:19:38.085Z,34.37
2018-05-29T02:24:34.247Z,35.57
2018-05-29T02:29:30.258Z,38.80
2018-05-29T02:34:26.094Z,37.53
2018-05-29T02:39:21.971Z,37.07
2018-05-29T02:44:18.109Z,35.03
2018-05-29T02:49:13.985Z,36.97
2018-05-29T02:54:10.133Z,36.20
2018-05-29T02:59:06.006Z,35.43
2018-05-29T03:04:01.882Z,36.70
2018-05-29T03:08:57.759Z,35.53
2018-05-29T03:13:53.676Z,33.07
2018-05-29T03:18:49.567Z,32.47
2018-05-29T03:23:45.435Z,32.43
2018-05-29T03:28:41.301Z,36.10
2018-05-29T03:33:37.168Z,36.80
2018-05-29T03:38:33.067Z,36.93
2018-05-29T03:43:29.112Z,37.47
2018-05-29T03:48:25.000Z,37.53
2018-05-29T03:53:20.878Z,35.60
2018-05-29T03:58:16.749Z,36.47
2018-05-29T04:03:12.665Z,38.80
2018-05-29T04:08:08.515Z,38.40
2018-05-29T04:13:04.383Z,38.87
2018-05-29T04:18:00.239Z,41.43
2018-05-29T04:22:56.118Z,37.80
2018-05-29T04:27:52.153Z,36.17
2018-05-29T04:32:47.985Z,35.50
2018-05-29T04:37:43.856Z,34.20
2018-05-29T04:42:39.736Z,33.83
2018-05-29T04:47:35.609Z,33.37
2018-05-29T04:52:31.517Z,34.83
2018-05-29T04:57:27.421Z,34.83
2018-05-29T05:02:23.297Z,33.43
2018-05-29T05:07:19.214Z,34.47
2018-05-29T05:12:15.089Z,32.90
2018-05-29T05:17:10.989Z,34.93
2018-05-29T05:22:06.881Z,31.87
2018-05-29T05:27:02.791Z,32.17
2018-05-29T05:31:58.680Z,34.93
2018-05-29T05:36:54.551Z,31.52
2018-05-29T05:41:50.423Z,32.78
2018-05-29T05:46:46.319Z,33.47
2018-05-29T05:51:42.214Z,32.25
2018-05-29T05:56:38.056Z,31.30
2018-05-29T06:01:33.941Z,34.63
2018-05-29T06:06:29.890Z,28.27
2018-05-29T06:11:25.812Z,27.65
2018-05-29T06:16:21.776Z,27.60
2018-05-29T06:21:17.643Z,28.23
2018-05-29T06:26:13.490Z,26.48
2018-05-29T06:31:09.348Z,23.58
2018-05-29T06:36:05.259Z,26.60
2018-05-29T06:41:01.161Z,24.52
2018-05-29T06:45:57.037Z,24.98
2018-05-29T06:50:52.968Z,23.95
2018-05-29T06:55:48.846Z,23.33
2018-05-29T07:00:44.772Z,25.85
2018-05-29T07:05:40.636Z,23.65
2018-05-29T07:10:36.588Z,22.52
2018-05-29T07:15:32.471Z,21.05
2018-05-29T07:20:28.370Z,21.42
2018-05-29T07:25:24.264Z,21.25
2018-05-29T07:30:20.191Z,28.95
2018-05-29T07:35:16.130Z,20.33
2018-05-29T07:40:12.051Z,19.77
2018-05-29T07:45:07.918Z,18.08
2018-05-29T07:50:03.778Z,20.10
2018-05-29T07:54:59.694Z,19.83
2018-05-29T07:59:55.564Z,19.93
2018-05-29T08:04:51.448Z,19.48
2018-05-29T08:09:47.329Z,17.73
2018-05-29T08:14:43.255Z,19.20
2018-05-29T08:19:39.160Z,19.15
2018-05-29T08:24:35.048Z,17.77
2018-05-29T08:29:30.925Z,19.52
2018-05-29T08:34:26.791Z,15.27
2018-05-29T08:39:22.677Z,16.73
2018-05-29T08:44:18.541Z,15.95
2018-05-29T08:49:14.548Z,16.48
2018-05-29T08:54:10.428Z,14.50
2018-05-29T08:59:06.497Z,13.82
2018-05-29T09:04:02.456Z,11.65
2018-05-29T09:08:58.294Z,12.45
2018-05-29T09:13:54.133Z,12.75
2018-05-29T09:18:50.027Z,12.82
2018-05-29T09:23:45.915Z,10.75
2018-05-29T09:28:41.895Z,10.80
2018-05-29T09:33:37.766Z,10.90
2018-05-29T09:38:33.670Z,14.43
2018-05-29T09:43:29.554Z,10.90
2018-05-29T09:48:25.441Z,10.75
2018-05-29T09:53:21.343Z,10.77
2018-05-29T09:58:17.264Z,15.43
2018-05-29T10:03:13.166Z,11.02
2018-05-29T10:08:09.085Z,13.65
2018-05-29T10:13:04.954Z,9.35
2018-05-29T10:18:00.853Z,11.25
2018-05-29T10:22:56.737Z,9.75
2018-05-29T10:27:52.649Z,9.15
2018-05-29T10:32:48.542Z,8.15
2018-05-29T10:37:44.399Z,12.30
2018-05-29T10:42:40.313Z,9.43
2018-05-29T10:47:36.207Z,8.57
2018-05-29T10:52:32.110Z,10.57
2018-05-29T10:57:27.995Z,8.77
2018-05-29T11:02:23.896Z,10.95
2018-05-29T11:07:19.973Z,9.98
2018-05-29T11:12:15.973Z,11.90
2018-05-29T11:17:11.873Z,9.55
2018-05-29T11:22:07.727Z,9.73
2018-05-29T11:27:03.802Z,10.35
2018-05-29T11:31:59.684Z,10.52
2018-05-29T11:36:55.738Z,10.90
2018-05-29T11:41:51.615Z,10.82
2018-05-29T11:46:47.489Z,10.40
2018-05-29T11:51:43.364Z,11.73
2018-05-29T11:56:39.229Z,14.55
2018-05-29T12:01:35.143Z,12.05
2018-05-29T12:06:31.003Z,11.45
2018-05-29T12:11:26.919Z,9.98
2018-05-29T12:16:22.921Z,9.70
2018-05-29T12:21:18.796Z,10.82
2018-05-29T12:26:14.873Z,12.07
2018-05-29T12:31:10.741Z,13.52
2018-05-29T12:36:06.616Z,15.23
2018-05-29T12:41:02.481Z,11.80
2018-05-29T12:45:58.377Z,10.38
2018-05-29T12:50:54.233Z,7.75
2018-05-29T12:55:50.103Z,8.75
2018-05-29T13:00:46.025Z,14.70
2018-05-29T13:05:41.882Z,7.30
2018-05-29T13:10:37.808Z,10.02
2018-05-29T13:15:33.660Z,10.73
2018-05-29T13:20:29.561Z,9.10
2018-05-29T13:25:25.445Z,9.48
2018-05-29T13:30:21.313Z,8.68
2018-05-29T13:35:17.258Z,6.70
2018-05-29T13:40:13.143Z,11.23
2018-05-29T13:45:09.001Z,8.40
2018-05-29T13:50:04.913Z,7.78
2018-05-29T13:55:00.759Z,9.52
2018-05-29T13:59:56.731Z,12.80
2018-05-29T14:04:52.603Z,11.27
2018-05-29T14:09:48.492Z,10.73
2018-05-29T14:14:44.403Z,12.43
2018-05-29T14:19:40.326Z,12.57
2018-05-29T14:24:36.203Z,9.45
2018-05-29T14:29:32.065Z,12.60
2018-05-29T14:34:27.953Z,10.80
2018-05-29T14:39:23.832Z,11.82
2018-05-29T14:44:19.795Z,12.20
2018-05-29T14:49:15.662Z,13.15
2018-05-29T14:54:11.546Z,8.10
2018-05-29T14:59:07.414Z,12.18
2018-05-29T15:04:03.333Z,10.93
2018-05-29T15:08:59.195Z,11.73
2018-05-29T15:13:55.095Z,16.08
2018-05-29T15:18:50.996Z,18.17
2018-05-29T15:23:46.857Z,17.87
2018-05-29T15:28:42.765Z,17.58
2018-05-29T15:33:38.683Z,16.35
2018-05-29T15:38:34.513Z,18.98
2018-05-29T15:43:30.359Z,16.33
2018-05-29T15:48:26.415Z,19.87
2018-05-29T15:53:22.343Z,16.70
2018-05-29T15:58:18.226Z,16.25
2018-05-29T16:03:14.153Z,16.55
2018-05-29T16:08:10.066Z,19.33
2018-05-29T16:13:05.975Z,16.30
2018-05-29T16:18:01.885Z,17.67
2018-05-29T16:22:57.792Z,20.23
2018-05-29T16:27:53.681Z,15.65
2018-05-29T16:32:49.569Z,18.02
2018-05-29T16:37:45.405Z,18.80
2018-05-29T16:42:41.305Z,19.23
2018-05-29T16:47:37.187Z,63.60
2018-05-29T16:52:33.289Z,15.38
2018-05-29T16:57:29.187Z,17.75
2018-05-29T17:02:25.084Z,18.48
2018-05-29T17:07:21.023Z,20.85
2018-05-29T17:12:16.902Z,18.60
2018-05-29T17:17:12.789Z,18.58
2018-05-29T17:22:08.685Z,15.57
2018-05-29T17:27:04.546Z,18.92
2018-05-29T17:32:00.517Z,15.80
2018-05-29T17:36:56.378Z,16.35
2018-05-29T17:41:52.281Z,18.80
2018-05-29T17:46:48.168Z,15.48
2018-05-29T17:51:44.051Z,21.45
2018-05-29T17:56:39.944Z,20.95
2018-05-29T18:01:35.828Z,16.58
2018-05-29T18:06:31.749Z,19.52
2018-05-29T18:11:27.647Z,31.80
2018-05-29T18:16:23.508Z,22.62
2018-05-29T18:21:19.401Z,21.23
2018-05-29T18:26:16.215Z,20.30
2018-05-29T18:31:12.175Z,22.02
2018-05-29T18:36:08.039Z,19.25
2018-05-29T18:41:03.940Z,19.83
2018-05-29T18:45:59.853Z,21.67
2018-05-29T18:50:55.717Z,21.27
2018-05-29T18:55:51.625Z,18.70
2018-05-29T19:00:47.512Z,16.12
2018-05-29T19:05:43.382Z,17.42
2018-05-29T19:10:39.288Z,15.73
2018-05-29T19:15:35.183Z,17.95
2018-05-29T19:20:31.053Z,20.23
2018-05-29T19:25:26.921Z,14.35
2018-05-29T19:30:22.783Z,14.87
2018-05-29T19:35:18.715Z,15.48
2018-05-29T19:40:14.612Z,18.27
2018-05-29T19:45:10.499Z,14.13
2018-05-29T19:50:06.411Z,16.83
2018-05-29T19:55:02.331Z,14.23
2018-05-29T19:59:58.203Z,15.02
2018-05-29T20:04:54.093Z,14.25
2018-05-29T20:09:49.971Z,17.45
2018-05-29T20:14:45.891Z,16.25
2018-05-29T20:19:41.740Z,20.00
2018-05-29T20:24:37.630Z,17.05
2018-05-29T20:29:33.486Z,16.35
2018-05-29T20:34:29.380Z,22.05
2018-05-29T20:39:25.249Z,21.55
2018-05-29T20:44:21.146Z,16.35
2018-05-29T20:49:17.043Z,20.23
2018-05-29T20:54:12.909Z,17.30
2018-05-29T20:59:08.772Z,17.33
2018-05-29T21:04:04.657Z,21.05
2018-05-29T21:09:00.534Z,24.40
2018-05-29T21:13:56.438Z,25.48
2018-05-29T21:18:52.349Z,20.88
2018-05-29T21:23:48.240Z,20.37
2018-05-29T21:28:44.257Z,21.05
2018-05-29T21:33:40.116Z,26.05
2018-05-29T21:38:36.000Z,23.35
2018-05-29T21:43:31.868Z,22.15
2018-05-29T21:48:27.741Z,22.27
2018-05-29T21:53:23.625Z,24.08
2018-05-29T21:58:19.522Z,22.42
2018-05-29T22:03:15.386Z,23.58
2018-05-29T22:08:11.248Z,26.40
2018-05-29T22:13:07.112Z,24.90
2018-05-29T22:18:03.051Z,27.23
2018-05-29T22:22:58.909Z,28.12
2018-05-29T22:27:54.797Z,27.95
2018-05-29T22:32:50.659Z,28.40
2018-05-29T22:37:46.537Z,24.00
2018-05-29T22:42:42.437Z,24.63
2018-05-29T22:47:38.360Z,22.13
2018-05-29T22:52:34.244Z,24.45
2018-05-29T22:57:30.165Z,28.58
2018-05-29T23:02:26.003Z,24.35
2018-05-29T23:07:21.908Z,26.75
2018-05-29T23:12:17.785Z,23.95
2018-05-29T23:17:13.624Z,23.62
2018-05-29T23:22:09.483Z,28.05
2018-05-29T23:27:05.339Z,28.90
2018-05-29T23:32:01.179Z,26.93
2018-05-29T23:36:57.068Z,28.80
2018-05-29T23:41:52.951Z,31.60
2018-05-29T23:46:48.841Z,28.87
2018-05-29T23:51:44.741Z,28.45
2018-05-29T23:56:40.632Z,27.53
